createdAt,value
2023-04-11T00:00:17.260Z,32.87
2023-04-11T00:01:17.259Z,32.90
2023-04-11T00:02:17.345Z,32.87
2023-04-11T00:03:17.374Z,32.90
2023-04-11T00:04:17.413Z,32.85
2023-04-11T00:05:17.296Z,32.85
2023-04-11T00:06:17.306Z,32.82
2023-04-11T00:07:17.306Z,32.82
2023-04-11T00:08:17.330Z,32.84
2023-04-11T00:09:17.304Z,32.83
2023-04-11T00:10:17.304Z,32.83
2023-04-11T00:11:17.304Z,32.83
2023-04-11T00:12:17.302Z,32.81
2023-04-11T00:13:17.290Z,32.77
2023-04-11T00:14:17.293Z,32.80
2023-04-11T00:15:17.301Z,32.77
2023-04-11T00:16:17.342Z,32.79
2023-04-11T00:17:17.340Z,32.78
2023-04-11T00:18:17.361Z,32.81
2023-04-11T00:19:17.385Z,32.79
2023-04-11T00:20:17.462Z,32.75
2023-04-11T00:21:17.409Z,32.77
2023-04-11T00:22:17.428Z,32.77
2023-04-11T00:23:17.446Z,32.78
2023-04-11T00:24:17.458Z,32.79
2023-04-11T00:25:17.464Z,32.77
2023-04-11T00:26:17.480Z,32.79
2023-04-11T00:27:17.969Z,32.80
2023-04-11T00:28:17.525Z,32.78
2023-04-11T00:29:17.526Z,32.81
2023-04-11T00:30:17.570Z,32.81
2023-04-11T00:31:17.615Z,32.78
2023-04-11T00:32:17.565Z,32.78
2023-04-11T00:33:17.561Z,32.80
2023-04-11T00:34:17.583Z,32.78
2023-04-11T00:35:17.580Z,32.82
2023-04-11T00:36:17.676Z,32.82
2023-04-11T00:37:17.607Z,32.83
2023-04-11T00:38:17.614Z,32.81
2023-04-11T00:39:17.608Z,32.85
2023-04-11T00:40:17.629Z,32.82
2023-04-11T00:41:17.616Z,32.84
2023-04-11T00:42:17.610Z,32.83
2023-04-11T00:43:17.607Z,32.85
2023-04-11T00:44:17.612Z,32.83
2023-04-11T00:45:17.625Z,32.85
2023-04-11T00:46:17.668Z,32.86
2023-04-11T00:47:17.604Z,32.83
2023-04-11T00:48:17.631Z,32.85
2023-04-11T00:49:17.637Z,32.88
2023-04-11T00:50:17.628Z,32.89
2023-04-11T00:51:17.611Z,32.86
2023-04-11T00:52:17.596Z,32.86
2023-04-11T00:53:17.564Z,32.86
2023-04-11T00:54:17.567Z,32.87
2023-04-11T00:55:17.589Z,32.89
2023-04-11T00:56:17.594Z,32.86
2023-04-11T00:57:17.602Z,32.89
2023-04-11T00:58:17.616Z,32.88
2023-04-11T00:59:17.626Z,32.89
2023-04-11T01:00:17.639Z,32.89
2023-04-11T01:01:17.670Z,32.90
2023-04-11T01:02:17.812Z,32.91
2023-04-11T01:03:17.953Z,32.88
2023-04-11T01:04:17.695Z,32.88
2023-04-11T01:05:17.687Z,32.88
2023-04-11T01:06:17.699Z,32.85
2023-04-11T01:07:17.722Z,32.86
2023-04-11T01:08:17.745Z,32.87
2023-04-11T01:09:17.766Z,32.89
2023-04-11T01:10:17.770Z,32.87
2023-04-11T01:11:17.790Z,32.88
2023-04-11T01:12:17.781Z,32.88
2023-04-11T01:13:17.784Z,32.90
2023-04-11T01:14:17.794Z,32.90
2023-04-11T01:15:17.836Z,32.90
2023-04-11T01:16:17.880Z,32.89
2023-04-11T01:17:17.871Z,32.91
2023-04-11T01:18:17.894Z,32.90
2023-04-11T01:19:17.909Z,32.85
2023-04-11T01:20:17.941Z,32.82
2023-04-11T01:21:17.956Z,32.86
2023-04-11T01:22:17.989Z,32.87
2023-04-11T01:23:18.005Z,32.89
2023-04-11T01:24:18.052Z,32.90
2023-04-11T01:25:18.060Z,32.87
2023-04-11T01:26:18.079Z,32.90
2023-04-11T01:27:18.108Z,32.89
2023-04-11T01:28:18.124Z,32.85
2023-04-11T01:29:18.136Z,32.85
2023-04-11T01:30:18.164Z,32.87
2023-04-11T01:31:18.229Z,32.87
2023-04-11T01:32:18.201Z,32.86
2023-04-11T01:33:18.218Z,32.87
2023-04-11T01:34:18.248Z,32.84
2023-04-11T01:35:18.260Z,32.85
2023-04-11T01:36:18.285Z,32.88
2023-04-11T01:37:18.308Z,32.88
2023-04-11T01:38:18.332Z,32.89
2023-04-11T01:39:18.513Z,32.92
2023-04-11T01:40:18.366Z,32.93
2023-04-11T01:41:18.380Z,32.92
2023-04-11T01:42:18.418Z,32.93
2023-04-11T01:43:18.438Z,32.93
2023-04-11T01:44:18.452Z,32.93
2023-04-11T01:45:18.459Z,32.94
2023-04-11T01:46:18.476Z,32.92
2023-04-11T01:47:18.510Z,32.88
2023-04-11T01:48:18.600Z,32.93
2023-04-11T01:49:18.554Z,32.92
2023-04-11T01:50:18.579Z,32.91
2023-04-11T01:51:18.603Z,32.91
2023-04-11T01:52:18.602Z,32.92
2023-04-11T01:53:18.628Z,32.92
2023-04-11T01:54:18.658Z,32.91
2023-04-11T01:55:18.673Z,32.89
2023-04-11T01:56:18.706Z,32.90
2023-04-11T01:57:18.717Z,32.92
2023-04-11T01:58:18.745Z,32.89
2023-04-11T01:59:18.730Z,32.91
2023-04-11T02:00:18.734Z,32.95
2023-04-11T02:01:18.783Z,32.93
2023-04-11T02:02:18.861Z,32.93
2023-04-11T02:03:18.891Z,32.92
2023-04-11T02:04:18.838Z,32.94
2023-04-11T02:05:18.794Z,32.92
2023-04-11T02:06:18.789Z,32.93
2023-04-11T02:07:18.805Z,32.91
2023-04-11T02:08:18.820Z,32.92
2023-04-11T02:09:18.825Z,32.92
2023-04-11T02:10:18.849Z,32.91
2023-04-11T02:11:18.873Z,32.92
2023-04-11T02:12:18.885Z,32.91
2023-04-11T02:13:18.915Z,32.91
2023-04-11T02:14:18.941Z,32.94
2023-04-11T02:15:18.955Z,32.97
2023-04-11T02:16:19.059Z,32.96
2023-04-11T02:17:19.015Z,32.94
2023-04-11T02:18:19.044Z,32.90
2023-04-11T02:19:19.068Z,32.90
2023-04-11T02:20:19.096Z,32.88
2023-04-11T02:21:19.125Z,32.90
2023-04-11T02:22:19.160Z,32.89
2023-04-11T02:23:19.180Z,32.88
2023-04-11T02:24:19.212Z,32.91
2023-04-11T02:25:19.246Z,32.91
2023-04-11T02:26:19.256Z,32.94
2023-04-11T02:27:19.290Z,32.91
2023-04-11T02:28:19.309Z,32.93
2023-04-11T02:29:19.365Z,32.95
2023-04-11T02:30:19.354Z,32.91
2023-04-11T02:31:19.455Z,32.93
2023-04-11T02:32:19.481Z,32.94
2023-04-11T02:33:19.449Z,32.94
2023-04-11T02:34:19.457Z,32.93
2023-04-11T02:35:19.467Z,32.94
2023-04-11T02:36:19.497Z,32.90
2023-04-11T02:37:19.508Z,32.91
2023-04-11T02:38:19.530Z,32.93
2023-04-11T02:39:19.570Z,32.94
2023-04-11T02:40:19.582Z,32.95
2023-04-11T02:41:19.593Z,32.94
2023-04-11T02:42:19.634Z,32.98
2023-04-11T02:43:19.659Z,32.93
2023-04-11T02:44:19.668Z,32.92
2023-04-11T02:45:19.717Z,32.91
2023-04-11T02:46:19.772Z,32.90
2023-04-11T02:47:19.776Z,32.91
2023-04-11T02:48:19.789Z,32.93
2023-04-11T02:49:19.823Z,32.94
2023-04-11T02:50:19.824Z,32.93
2023-04-11T02:51:19.846Z,32.91
2023-04-11T02:52:19.892Z,32.92
2023-04-11T02:53:19.904Z,32.93
2023-04-11T02:54:19.931Z,32.90
2023-04-11T02:55:19.962Z,32.91
2023-04-11T02:56:19.987Z,32.92
2023-04-11T02:57:20.011Z,32.92
2023-04-11T02:58:20.034Z,32.92
2023-04-11T02:59:20.063Z,32.89
2023-04-11T03:00:20.078Z,32.90
2023-04-11T03:01:20.096Z,32.88
2023-04-11T03:02:20.216Z,32.91
2023-04-11T03:03:20.329Z,32.90
2023-04-11T03:04:20.176Z,32.90
2023-04-11T03:05:20.244Z,32.89
2023-04-11T03:06:20.188Z,32.89
2023-04-11T03:07:20.198Z,32.90
2023-04-11T03:08:20.206Z,32.91
2023-04-11T03:09:20.232Z,32.93
2023-04-11T03:10:20.265Z,32.94
2023-04-11T03:11:20.277Z,32.97
2023-04-11T03:12:20.337Z,32.98
2023-04-11T03:13:20.324Z,33.00
2023-04-11T03:14:20.325Z,32.97
2023-04-11T03:15:20.341Z,32.96
2023-04-11T03:16:20.372Z,32.96
2023-04-11T03:17:20.402Z,32.94
2023-04-11T03:18:20.392Z,32.96
2023-04-11T03:19:20.451Z,32.95
2023-04-11T03:20:20.417Z,32.93
2023-04-11T03:21:20.433Z,32.92
2023-04-11T03:22:20.454Z,32.95
2023-04-11T03:23:20.466Z,32.97
2023-04-11T03:24:20.469Z,32.95
2023-04-11T03:25:20.474Z,32.95
2023-04-11T03:26:20.459Z,32.95
2023-04-11T03:27:20.442Z,32.91
2023-04-11T03:28:20.466Z,32.95
2023-04-11T03:29:20.465Z,32.97
2023-04-11T03:30:20.486Z,32.94
2023-04-11T03:31:20.519Z,32.94
2023-04-11T03:32:20.550Z,32.97
2023-04-11T03:33:20.548Z,32.96
2023-04-11T03:34:20.558Z,32.99
2023-04-11T03:35:20.667Z,33.00
2023-04-11T03:36:20.656Z,32.97
2023-04-11T03:37:20.627Z,32.97
2023-04-11T03:38:20.640Z,32.97
2023-04-11T03:39:20.669Z,33.01
2023-04-11T03:40:20.713Z,32.98
2023-04-11T03:41:20.735Z,32.97
2023-04-11T03:42:20.760Z,32.97
2023-04-11T03:43:20.790Z,32.98
2023-04-11T03:44:20.799Z,32.99
2023-04-11T03:45:20.829Z,32.96
2023-04-11T03:46:20.888Z,32.98
2023-04-11T03:47:20.875Z,32.98
2023-04-11T03:48:20.903Z,33.01
2023-04-11T03:49:20.941Z,33.00
2023-04-11T03:50:20.952Z,33.00
2023-04-11T03:51:20.970Z,32.95
2023-04-11T03:52:20.993Z,32.97
2023-04-11T03:53:21.022Z,32.97
2023-04-11T03:54:21.051Z,32.98
2023-04-11T03:55:21.078Z,32.98
2023-04-11T03:56:21.104Z,32.98
2023-04-11T03:57:21.104Z,32.98
2023-04-11T03:58:21.115Z,32.99
2023-04-11T03:59:21.161Z,32.94
2023-04-11T04:00:21.166Z,32.95
2023-04-11T04:01:21.190Z,32.99
2023-04-11T04:02:21.316Z,32.99
2023-04-11T04:03:21.316Z,32.98
2023-04-11T04:04:21.349Z,32.98
2023-04-11T04:05:21.270Z,33.01
2023-04-11T04:06:21.298Z,32.99
2023-04-11T04:07:21.303Z,33.03
2023-04-11T04:08:21.342Z,32.98
2023-04-11T04:09:21.358Z,32.96
2023-04-11T04:10:21.364Z,32.97
2023-04-11T04:11:21.406Z,32.98
2023-04-11T04:12:21.404Z,33.00
2023-04-11T04:13:21.413Z,33.00
2023-04-11T04:14:21.426Z,33.01
2023-04-11T04:15:21.530Z,33.03
2023-04-11T04:16:21.513Z,32.99
2023-04-11T04:17:21.481Z,33.00
2023-04-11T04:18:21.509Z,32.95
2023-04-11T04:19:21.512Z,32.96
2023-04-11T04:20:21.538Z,32.98
2023-04-11T04:21:21.550Z,32.98
2023-04-11T04:22:21.546Z,33.02
2023-04-11T04:23:21.574Z,33.01
2023-04-11T04:24:21.590Z,32.98
2023-04-11T04:25:24.578Z,32.98
2023-04-11T04:26:21.554Z,32.98
2023-04-11T04:27:21.525Z,33.00
2023-04-11T04:28:21.481Z,32.99
2023-04-11T04:29:21.431Z,33.00
2023-04-11T04:30:21.392Z,33.00
2023-04-11T04:31:21.372Z,32.96
2023-04-11T04:32:21.341Z,32.99
2023-04-11T04:33:21.258Z,32.99
2023-04-11T04:34:21.205Z,32.95
2023-04-11T04:35:21.166Z,32.98
2023-04-11T04:36:21.119Z,32.96
2023-04-11T04:37:21.070Z,32.95
2023-04-11T04:38:21.033Z,32.97
2023-04-11T04:39:20.979Z,33.00
2023-04-11T04:40:20.932Z,32.99
2023-04-11T04:41:20.894Z,32.98
2023-04-11T04:42:20.843Z,33.00
2023-04-11T04:43:20.807Z,32.97
2023-04-11T04:44:20.760Z,33.00
2023-04-11T04:45:20.720Z,33.00
2023-04-11T04:46:20.711Z,33.01
2023-04-11T04:47:20.671Z,33.00
2023-04-11T04:48:20.702Z,32.98
2023-04-11T04:49:20.689Z,32.99
2023-04-11T04:50:20.721Z,32.98
2023-04-11T04:51:20.739Z,33.00
2023-04-11T04:52:20.766Z,32.99
2023-04-11T04:53:20.804Z,32.98
2023-04-11T04:54:20.805Z,32.95
2023-04-11T04:55:20.816Z,32.99
2023-04-11T04:56:20.837Z,32.99
2023-04-11T04:57:20.856Z,33.01
2023-04-11T04:58:20.887Z,33.02
2023-04-11T04:59:20.893Z,33.03
2023-04-11T05:00:22.910Z,33.01
2023-04-11T05:01:20.952Z,33.01
2023-04-11T05:02:21.026Z,33.00
2023-04-11T05:03:21.071Z,33.01
2023-04-11T05:04:21.109Z,33.00
2023-04-11T05:05:20.997Z,33.02
2023-04-11T05:06:20.991Z,33.13
2023-04-11T05:07:21.021Z,33.18
2023-04-11T05:08:21.026Z,33.10
2023-04-11T05:09:21.053Z,33.34
2023-04-11T05:10:21.055Z,33.57
2023-04-11T05:11:21.070Z,33.60
2023-04-11T05:12:21.067Z,33.71
2023-04-11T05:13:21.086Z,34.06
2023-04-11T05:14:21.076Z,33.99
2023-04-11T05:15:21.092Z,33.83
2023-04-11T05:16:21.122Z,34.02
2023-04-11T05:17:22.197Z,34.17
2023-04-11T05:18:21.049Z,34.70
2023-04-11T05:19:21.004Z,34.64
2023-04-11T05:20:20.962Z,34.83
2023-04-11T05:21:20.930Z,34.71
2023-04-11T05:22:20.905Z,34.68
2023-04-11T05:23:20.843Z,34.23
2023-04-11T05:24:20.805Z,34.74
2023-04-11T05:25:20.756Z,35.30
2023-04-11T05:26:20.720Z,34.97
2023-04-11T05:27:22.273Z,35.31
2023-04-11T05:28:20.652Z,34.25
2023-04-11T05:29:21.258Z,32.78
2023-04-11T05:30:20.612Z,33.13
2023-04-11T05:31:22.334Z,33.18
2023-04-11T05:32:20.577Z,33.50
2023-04-11T05:33:20.493Z,33.54
2023-04-11T05:34:22.270Z,32.85
2023-04-11T05:35:21.252Z,31.98
2023-04-11T05:36:22.275Z,31.82
2023-04-11T05:37:21.177Z,31.39
2023-04-11T05:38:20.294Z,31.70
2023-04-11T05:39:21.821Z,31.58
2023-04-11T05:40:20.757Z,32.06
2023-04-11T05:41:20.160Z,32.71
2023-04-11T05:42:20.160Z,32.88
2023-04-11T05:43:20.091Z,33.12
2023-04-11T05:44:20.062Z,33.25
2023-04-11T05:45:20.106Z,33.30
2023-04-11T05:46:20.144Z,33.27
2023-04-11T05:47:20.082Z,33.32
2023-04-11T05:48:20.038Z,33.41
2023-04-11T05:49:20.050Z,33.37
2023-04-11T05:50:22.791Z,33.38
2023-04-11T05:51:19.885Z,33.40
2023-04-11T05:52:19.844Z,33.47
2023-04-11T05:53:19.796Z,33.44
2023-04-11T05:54:19.836Z,33.55
2023-04-11T05:55:19.727Z,33.50
2023-04-11T05:56:19.678Z,33.62
2023-04-11T05:57:19.626Z,33.56
2023-04-11T05:58:19.585Z,33.61
2023-04-11T05:59:25.062Z,33.74
2023-04-11T06:00:20.523Z,33.78
2023-04-11T06:01:19.447Z,33.75
2023-04-11T06:02:20.360Z,33.47
2023-04-11T06:03:19.470Z,33.41
2023-04-11T06:04:19.483Z,33.31
2023-04-11T06:05:19.349Z,33.25
2023-04-11T06:06:19.216Z,33.59
2023-04-11T06:07:19.174Z,33.69
2023-04-11T06:08:19.146Z,33.70
2023-04-11T06:09:19.295Z,33.72
2023-04-11T06:10:19.069Z,33.67
2023-04-11T06:11:19.770Z,33.69
2023-04-11T06:12:18.963Z,33.65
2023-04-11T06:13:18.932Z,33.62
2023-04-11T06:14:18.883Z,33.60
2023-04-11T06:15:18.839Z,33.52
2023-04-11T06:16:18.841Z,33.55
2023-04-11T06:17:18.834Z,33.53
2023-04-11T06:18:18.833Z,33.55
2023-04-11T06:19:18.872Z,33.53
2023-04-11T06:20:18.885Z,33.54
2023-04-11T06:21:18.904Z,33.57
2023-04-11T06:22:18.921Z,34.23
2023-04-11T06:23:22.275Z,34.59
2023-04-11T06:24:18.915Z,35.83
2023-04-11T06:25:19.780Z,35.54
2023-04-11T06:26:18.913Z,35.19
2023-04-11T06:27:18.819Z,35.01
2023-04-11T06:28:18.880Z,35.20
2023-04-11T06:29:18.776Z,35.05
2023-04-11T06:30:18.794Z,34.82
2023-04-11T06:31:18.896Z,34.12
2023-04-11T06:32:18.823Z,33.88
2023-04-11T06:33:19.299Z,33.67
2023-04-11T06:34:18.860Z,33.50
2023-04-11T06:35:18.881Z,33.57
2023-04-11T06:36:18.974Z,33.71
2023-04-11T06:37:18.929Z,33.75
2023-04-11T06:38:18.955Z,33.84
2023-04-11T06:39:19.020Z,33.88
2023-04-11T06:40:19.014Z,33.90
2023-04-11T06:41:19.020Z,34.07
2023-04-11T06:42:19.055Z,34.19
2023-04-11T06:43:19.789Z,34.24
2023-04-11T06:44:19.077Z,34.31
2023-04-11T06:45:19.104Z,34.34
2023-04-11T06:46:19.149Z,34.31
2023-04-11T06:47:19.218Z,34.32
2023-04-11T06:48:19.168Z,34.30
2023-04-11T06:49:19.202Z,34.37
2023-04-11T06:50:19.157Z,34.41
2023-04-11T06:51:19.122Z,34.35
2023-04-11T06:52:25.851Z,34.35
2023-04-11T06:53:19.050Z,33.91
2023-04-11T06:54:18.996Z,33.58
2023-04-11T06:55:18.972Z,33.27
2023-04-11T06:56:18.919Z,33.15
2023-04-11T06:57:18.983Z,33.08
2023-04-11T06:58:18.953Z,32.79
2023-04-11T06:59:18.813Z,32.82
2023-04-11T07:00:18.778Z,33.12
2023-04-11T07:01:18.802Z,32.93
2023-04-11T07:02:18.903Z,33.04
2023-04-11T07:03:18.755Z,32.97
2023-04-11T07:04:19.747Z,33.40
2023-04-11T07:05:18.623Z,34.04
2023-04-11T07:06:18.564Z,34.41
2023-04-11T07:07:18.518Z,34.51
2023-04-11T07:08:18.497Z,34.59
2023-04-11T07:09:18.440Z,34.61
2023-04-11T07:10:18.401Z,34.65
2023-04-11T07:11:20.063Z,34.66
2023-04-11T07:12:18.311Z,34.66
2023-04-11T07:13:20.836Z,34.67
2023-04-11T07:14:20.324Z,34.68
2023-04-11T07:15:19.296Z,34.73
2023-04-11T07:16:18.492Z,34.74
2023-04-11T07:17:18.448Z,34.59
2023-04-11T07:18:18.473Z,34.54
2023-04-11T07:19:19.314Z,34.88
2023-04-11T07:20:18.418Z,35.28
2023-04-11T07:21:18.397Z,35.36
2023-04-11T07:22:18.376Z,35.52
2023-04-11T07:23:18.362Z,35.36
2023-04-11T07:24:18.444Z,35.58
2023-04-11T07:25:18.367Z,35.27
2023-04-11T07:26:18.363Z,35.17
2023-04-11T07:27:18.369Z,35.23
2023-04-11T07:28:18.378Z,35.10
2023-04-11T07:29:18.393Z,34.94
2023-04-11T07:30:18.375Z,34.88
2023-04-11T07:31:18.418Z,34.89
2023-04-11T07:32:18.421Z,34.90
2023-04-11T07:33:18.407Z,34.97
2023-04-11T07:34:18.454Z,34.94
2023-04-11T07:35:18.441Z,34.94
2023-04-11T07:36:18.430Z,34.90
2023-04-11T07:37:18.435Z,34.94
2023-04-11T07:38:18.448Z,34.98
2023-04-11T07:39:18.481Z,35.00
2023-04-11T07:40:18.487Z,34.97
2023-04-11T07:41:18.527Z,35.00
2023-04-11T07:42:18.527Z,34.96
2023-04-11T07:43:18.560Z,34.96
2023-04-11T07:44:18.568Z,34.99
2023-04-11T07:45:18.584Z,34.98
2023-04-11T07:46:18.826Z,35.04
2023-04-11T07:47:18.629Z,35.04
2023-04-11T07:48:18.633Z,35.05
2023-04-11T07:49:18.659Z,35.04
2023-04-11T07:50:18.680Z,35.05
2023-04-11T07:51:18.700Z,35.05
2023-04-11T07:52:18.729Z,35.07
2023-04-11T07:53:18.731Z,35.00
2023-04-11T07:54:18.736Z,34.99
2023-04-11T07:55:18.764Z,35.02
2023-04-11T07:56:18.803Z,35.04
2023-04-11T07:57:18.805Z,34.99
2023-04-11T07:58:18.819Z,34.99
2023-04-11T07:59:18.847Z,35.03
2023-04-11T08:00:18.873Z,35.04
2023-04-11T08:01:18.900Z,35.01
2023-04-11T08:02:19.058Z,35.00
2023-04-11T08:03:19.050Z,35.05
2023-04-11T08:04:19.115Z,35.03
2023-04-11T08:05:19.025Z,34.99
2023-04-11T08:06:18.977Z,35.00
2023-04-11T08:07:18.989Z,35.03
2023-04-11T08:08:19.013Z,35.00
2023-04-11T08:09:19.018Z,35.02
2023-04-11T08:10:19.025Z,35.06
2023-04-11T08:11:19.058Z,35.46
2023-04-11T08:12:19.054Z,35.85
2023-04-11T08:13:19.842Z,36.57
2023-04-11T08:14:18.995Z,37.09
2023-04-11T08:15:18.985Z,36.56
2023-04-11T08:16:19.018Z,36.62
2023-04-11T08:17:27.661Z,36.45
2023-04-11T08:18:19.926Z,36.82
2023-04-11T08:19:18.855Z,37.30
2023-04-11T08:20:19.329Z,37.38
2023-04-11T08:21:18.770Z,37.41
2023-04-11T08:22:18.734Z,37.60
2023-04-11T08:23:18.703Z,37.97
2023-04-11T08:24:18.659Z,37.64
2023-04-11T08:25:19.290Z,37.77
2023-04-11T08:26:18.582Z,38.07
2023-04-11T08:27:18.541Z,37.90
2023-04-11T08:28:18.506Z,37.68
2023-04-11T08:29:18.449Z,37.95
2023-04-11T08:30:18.416Z,37.58
2023-04-11T08:31:18.906Z,37.24
2023-04-11T08:32:19.359Z,36.97
2023-04-11T08:33:18.410Z,37.36
2023-04-11T08:34:18.396Z,37.37
2023-04-11T08:35:18.388Z,37.32
2023-04-11T08:36:18.414Z,37.28
2023-04-11T08:37:18.414Z,37.04
2023-04-11T08:38:18.427Z,36.98
2023-04-11T08:39:18.454Z,36.92
2023-04-11T08:40:18.452Z,36.97
2023-04-11T08:41:18.470Z,37.08
2023-04-11T08:42:18.486Z,37.35
2023-04-11T08:43:18.516Z,37.30
2023-04-11T08:44:18.514Z,37.42
2023-04-11T08:45:18.555Z,37.37
2023-04-11T08:46:18.643Z,37.22
2023-04-11T08:47:18.588Z,37.28
2023-04-11T08:48:18.600Z,37.26
2023-04-11T08:49:18.645Z,37.37
2023-04-11T08:50:18.644Z,37.29
2023-04-11T08:51:18.650Z,37.29
2023-04-11T08:52:18.671Z,37.29
2023-04-11T08:53:18.912Z,37.28
2023-04-11T08:54:18.704Z,37.30
2023-04-11T08:55:18.811Z,37.26
2023-04-11T08:56:18.794Z,37.24
2023-04-11T08:57:18.766Z,37.37
2023-04-11T08:58:18.758Z,37.34
2023-04-11T08:59:18.788Z,37.22
2023-04-11T09:00:19.069Z,37.08
2023-04-11T09:01:18.761Z,37.07
2023-04-11T09:02:18.838Z,37.06
2023-04-11T09:03:18.743Z,37.08
2023-04-11T09:04:18.650Z,37.42
2023-04-11T09:05:18.560Z,37.36
2023-04-11T09:06:19.379Z,37.27
2023-04-11T09:07:18.475Z,37.16
2023-04-11T09:08:23.358Z,37.08
2023-04-11T09:09:18.394Z,37.08
2023-04-11T09:10:18.351Z,37.09
2023-04-11T09:11:18.294Z,37.32
2023-04-11T09:12:18.266Z,37.32
2023-04-11T09:13:18.213Z,37.22
2023-04-11T09:14:18.195Z,37.14
2023-04-11T09:15:18.104Z,37.39
2023-04-11T09:16:18.107Z,38.07
2023-04-11T09:17:18.037Z,37.96
2023-04-11T09:18:18.037Z,38.10
2023-04-11T09:19:17.953Z,37.88
2023-04-11T09:20:17.943Z,38.23
2023-04-11T09:21:17.899Z,38.25
2023-04-11T09:22:17.857Z,38.55
2023-04-11T09:23:17.815Z,38.66
2023-04-11T09:24:17.783Z,38.68
2023-04-11T09:25:17.739Z,38.70
2023-04-11T09:26:17.693Z,38.34
2023-04-11T09:27:17.702Z,38.51
2023-04-11T09:28:17.708Z,38.49
2023-04-11T09:29:17.729Z,38.11
2023-04-11T09:30:17.755Z,38.07
2023-04-11T09:31:17.775Z,38.59
2023-04-11T09:32:17.776Z,38.68
2023-04-11T09:33:17.782Z,38.85
2023-04-11T09:34:17.802Z,38.63
2023-04-11T09:35:17.819Z,38.61
2023-04-11T09:36:17.863Z,38.51
2023-04-11T09:37:17.858Z,38.24
2023-04-11T09:38:17.870Z,38.08
2023-04-11T09:39:17.889Z,37.86
2023-04-11T09:40:17.900Z,37.71
2023-04-11T09:41:17.911Z,37.66
2023-04-11T09:42:17.877Z,37.65
2023-04-11T09:43:19.982Z,37.47
2023-04-11T09:44:18.039Z,37.47
2023-04-11T09:45:17.905Z,37.51
2023-04-11T09:46:17.933Z,37.29
2023-04-11T09:47:17.866Z,37.19
2023-04-11T09:48:17.851Z,37.15
2023-04-11T09:49:17.822Z,37.21
2023-04-11T09:50:17.809Z,37.27
2023-04-11T09:51:34.395Z,37.24
2023-04-11T09:52:18.742Z,37.29
2023-04-11T09:53:17.706Z,37.33
2023-04-11T09:54:17.684Z,37.37
2023-04-11T09:55:18.376Z,37.39
2023-04-11T09:56:17.700Z,37.48
2023-04-11T09:57:17.554Z,37.49
2023-04-11T09:58:17.506Z,37.51
2023-04-11T09:59:17.471Z,37.55
2023-04-11T10:00:17.436Z,37.57
2023-04-11T10:01:17.394Z,37.59
2023-04-11T10:02:17.494Z,37.57
2023-04-11T10:03:17.384Z,37.63
2023-04-11T10:04:17.297Z,37.61
2023-04-11T10:05:17.222Z,37.56
2023-04-11T10:06:17.191Z,37.59
2023-04-11T10:07:17.207Z,37.57
2023-04-11T10:08:17.139Z,37.62
2023-04-11T10:09:17.074Z,37.79
2023-04-11T10:10:17.004Z,37.89
2023-04-11T10:11:16.959Z,38.36
2023-04-11T10:12:16.932Z,38.27
2023-04-11T10:13:16.893Z,38.39
2023-04-11T10:14:16.861Z,38.47
2023-04-11T10:15:16.821Z,38.42
2023-04-11T10:16:16.815Z,38.37
2023-04-11T10:17:20.721Z,38.47
2023-04-11T10:18:17.727Z,38.49
2023-04-11T10:19:16.668Z,38.59
2023-04-11T10:20:16.630Z,38.61
2023-04-11T10:21:16.572Z,38.53
2023-04-11T10:22:16.563Z,38.67
2023-04-11T10:23:16.506Z,38.68
2023-04-11T10:24:17.818Z,38.78
2023-04-11T10:25:16.388Z,38.79
2023-04-11T10:26:17.357Z,38.84
2023-04-11T10:27:16.897Z,38.88
2023-04-11T10:28:16.392Z,38.93
2023-04-11T10:29:16.418Z,38.91
2023-04-11T10:30:17.313Z,38.91
2023-04-11T10:31:16.436Z,38.76
2023-04-11T10:32:16.442Z,38.92
2023-04-11T10:33:16.464Z,38.86
2023-04-11T10:34:16.474Z,38.79
2023-04-11T10:35:16.483Z,38.87
2023-04-11T10:36:16.543Z,38.81
2023-04-11T10:37:16.519Z,38.72
2023-04-11T10:38:16.521Z,38.80
2023-04-11T10:39:16.537Z,38.69
2023-04-11T10:40:16.552Z,38.78
2023-04-11T10:41:16.583Z,38.74
2023-04-11T10:42:16.610Z,38.73
2023-04-11T10:43:16.588Z,38.65
2023-04-11T10:44:16.612Z,38.71
2023-04-11T10:45:16.629Z,38.72
2023-04-11T10:46:16.681Z,38.67
2023-04-11T10:47:16.748Z,38.65
2023-04-11T10:48:16.670Z,38.77
2023-04-11T10:49:16.789Z,38.83
2023-04-11T10:50:16.693Z,38.77
2023-04-11T10:51:16.709Z,38.84
2023-04-11T10:52:16.732Z,38.77
2023-04-11T10:53:16.735Z,38.81
2023-04-11T10:54:16.765Z,38.80
2023-04-11T10:55:16.777Z,38.75
2023-04-11T10:56:17.524Z,38.75
2023-04-11T10:57:16.794Z,38.78
2023-04-11T10:58:16.832Z,38.77
2023-04-11T10:59:16.819Z,38.71
2023-04-11T11:00:16.835Z,38.69
2023-04-11T11:01:26.442Z,38.74
2023-04-11T11:02:17.866Z,39.31
2023-04-11T11:03:16.887Z,39.16
2023-04-11T11:04:16.955Z,39.40
2023-04-11T11:05:16.682Z,39.49
2023-04-11T11:06:16.629Z,39.96
2023-04-11T11:07:16.601Z,39.67
2023-04-11T11:08:16.566Z,39.68
2023-04-11T11:09:16.528Z,39.48
2023-04-11T11:10:16.479Z,39.49
2023-04-11T11:11:17.335Z,39.55
2023-04-11T11:12:16.397Z,39.67
2023-04-11T11:13:16.357Z,39.68
2023-04-11T11:14:16.318Z,39.70
2023-04-11T11:15:16.328Z,39.54
2023-04-11T11:16:16.389Z,39.45
2023-04-11T11:17:16.354Z,39.32
2023-04-11T11:18:16.420Z,39.46
2023-04-11T11:19:16.372Z,39.46
2023-04-11T11:20:16.380Z,39.53
2023-04-11T11:21:24.625Z,39.73
2023-04-11T11:22:17.350Z,39.54
2023-04-11T11:23:16.284Z,39.46
2023-04-11T11:24:16.231Z,39.35
2023-04-11T11:25:16.196Z,39.06
2023-04-11T11:26:16.133Z,39.45
2023-04-11T11:27:16.090Z,39.46
2023-04-11T11:28:16.040Z,39.41
2023-04-11T11:29:16.912Z,39.58
2023-04-11T11:30:15.941Z,39.68
2023-04-11T11:31:15.945Z,39.72
2023-04-11T11:32:15.949Z,39.72
2023-04-11T11:33:15.970Z,39.79
2023-04-11T11:35:15.926Z,39.91
2023-04-11T11:36:15.897Z,39.96
2023-04-11T11:37:15.808Z,40.15
2023-04-11T11:38:15.762Z,40.17
2023-04-11T11:39:15.740Z,40.14
2023-04-11T11:40:15.741Z,40.06
2023-04-11T11:41:15.619Z,40.12
2023-04-11T11:42:15.590Z,40.26
2023-04-11T11:43:15.532Z,40.27
2023-04-11T11:44:15.491Z,40.25
2023-04-11T11:45:15.456Z,40.24
2023-04-11T11:46:15.432Z,40.23
2023-04-11T11:47:15.655Z,40.14
2023-04-11T11:48:15.313Z,39.94
2023-04-11T11:49:15.342Z,40.03
2023-04-11T11:50:15.232Z,40.09
2023-04-11T11:51:15.181Z,39.96
2023-04-11T11:52:15.125Z,40.14
2023-04-11T11:53:15.075Z,40.19
2023-04-11T11:54:15.014Z,40.21
2023-04-11T11:55:14.969Z,40.15
2023-04-11T11:56:14.919Z,40.42
2023-04-11T11:57:14.867Z,40.28
2023-04-11T11:58:14.820Z,40.33
2023-04-11T11:59:14.783Z,40.38
2023-04-11T12:00:14.720Z,40.61
2023-04-11T12:01:15.716Z,40.53
2023-04-11T12:02:14.700Z,40.89
2023-04-11T12:03:14.704Z,40.97
2023-04-11T12:04:14.644Z,40.94
2023-04-11T12:05:14.555Z,40.83
2023-04-11T12:06:14.425Z,40.85
2023-04-11T12:07:14.373Z,40.67
2023-04-11T12:08:14.319Z,40.61
2023-04-11T12:09:14.296Z,40.59
2023-04-11T12:10:14.249Z,40.59
2023-04-11T12:11:14.238Z,40.51
2023-04-11T12:12:14.271Z,40.30
2023-04-11T12:13:14.292Z,40.31
2023-04-11T12:14:14.206Z,40.28
2023-04-11T12:15:14.328Z,40.24
2023-04-11T12:16:14.282Z,40.38
2023-04-11T12:17:14.282Z,40.32
2023-04-11T12:18:14.246Z,40.35
2023-04-11T12:19:14.192Z,40.42
2023-04-11T12:20:14.193Z,40.38
2023-04-11T12:21:14.185Z,40.39
2023-04-11T12:22:14.315Z,40.42
2023-04-11T12:23:14.188Z,40.38
2023-04-11T12:24:14.200Z,40.36
2023-04-11T12:25:14.195Z,40.30
2023-04-11T12:26:14.197Z,40.29
2023-04-11T12:27:14.203Z,40.23
2023-04-11T12:28:14.201Z,40.44
2023-04-11T12:29:14.207Z,40.49
2023-04-11T12:30:14.232Z,40.53
2023-04-11T12:31:14.261Z,40.60
2023-04-11T12:32:14.203Z,40.58
2023-04-11T12:33:14.207Z,40.55
2023-04-11T12:34:14.211Z,40.51
2023-04-11T12:35:14.222Z,40.52
2023-04-11T12:36:14.211Z,40.52
2023-04-11T12:37:14.222Z,40.59
2023-04-11T12:38:17.423Z,40.54
2023-04-11T12:39:14.171Z,40.57
2023-04-11T12:40:14.168Z,40.66
2023-04-11T12:41:31.637Z,40.69
2023-04-11T12:42:16.768Z,40.68
2023-04-11T12:43:14.969Z,40.70
2023-04-11T12:44:13.928Z,40.65
2023-04-11T12:45:13.875Z,40.61
2023-04-11T12:46:13.845Z,40.59
2023-04-11T12:47:13.812Z,40.71
2023-04-11T12:48:13.730Z,40.68
2023-04-11T12:49:13.700Z,40.77
2023-04-11T12:50:13.672Z,40.74
2023-04-11T12:51:13.592Z,40.73
2023-04-11T12:52:13.559Z,40.66
2023-04-11T12:53:13.517Z,40.73